Time;durP1;ratioP1;P1;durP2;ratioP2;P2;SDS_P1;SDS_P2;PMS_P1;PMS_P2;Temp;Humidity;BMP_temperature;BMP_pressure;BME280_temperature;BME280_humidity;BME280_pressure;Samples;Min_cycle;Max_cycle;Signal;HPM_P1;HPM_P2
2021/12/25 00:00:40;;;;;;;29.27;16.55;;;;;;;;;;4969179;28;95729;-74
2021/12/25 00:03:08;;;;;;;29.25;16.48;;;;;;;;;;4968405;28;97649;-74
2021/12/25 00:05:36;;;;;;;22.48;12.20;;;;;;;;;;4979965;28;95718;-75
2021/12/25 00:08:06;;;;;;;25.05;14.70;;;;;;;;;;4988019;28;97660;-74
2021/12/25 00:10:37;;;;;;;23.58;13.20;;;;;;;;;;4987823;28;95588;-75
2021/12/25 00:13:06;;;;;;;26.23;13.38;;;;;;;;;;4989261;28;96783;-74
2021/12/25 00:15:34;;;;;;;18.02;10.80;;;;;;;;;;4982393;28;96914;-73
2021/12/25 00:18:02;;;;;;;19.98;12.10;;;;;;;;;;4968279;28;95473;-75
2021/12/25 00:20:30;;;;;;;22.77;13.07;;;;;;;;;;4983895;28;96181;-74
2021/12/25 00:23:04;;;;;;;20.50;11.68;;;;;;;;;;4988345;28;96385;-74
2021/12/25 00:25:37;;;;;;;18.98;10.63;;;;;;;;;;4988941;28;95325;-75
2021/12/25 00:33:37;;;;;;;18.55;10.95;;;;;;;;;;4952333;28;97236;-75
2021/12/25 00:36:08;;;;;;;18.73;11.43;;;;;;;;;;4952569;28;99829;-74
2021/12/25 00:38:42;;;;;;;22.65;13.88;;;;;;;;;;4983579;28;95764;-74
2021/12/25 00:41:19;;;;;;;30.02;17.20;;;;;;;;;;4971605;28;96232;-74
2021/12/25 00:43:46;;;;;;;23.15;13.18;;;;;;;;;;4970168;28;97561;-75
2021/12/25 00:46:14;;;;;;;23.75;12.18;;;;;;;;;;4972929;28;95271;-76
2021/12/25 00:48:40;;;;;;;24.15;13.18;;;;;;;;;;4976037;28;96706;-75
2021/12/25 00:51:06;;;;;;;23.05;12.43;;;;;;;;;;4987037;28;95369;-74
2021/12/25 00:53:33;;;;;;;19.83;11.02;;;;;;;;;;4971391;28;97281;-74
2021/12/25 00:55:59;;;;;;;19.75;11.50;;;;;;;;;;4971595;28;97298;-74
2021/12/25 00:58:25;;;;;;;21.08;11.88;;;;;;;;;;4985305;28;96865;-74
2021/12/25 01:00:52;;;;;;;19.45;12.07;;;;;;;;;;4973178;28;97066;-75
2021/12/25 01:03:18;;;;;;;23.05;13.18;;;;;;;;;;4970695;28;97287;-74
2021/12/25 01:05:45;;;;;;;21.55;12.95;;;;;;;;;;4977594;28;95597;-75
2021/12/25 01:08:11;;;;;;;19.98;11.32;;;;;;;;;;4976400;28;95644;-75
2021/12/25 01:10:38;;;;;;;15.25;8.88;;;;;;;;;;4978108;28;97384;-75
2021/12/25 01:13:12;;;;;;;23.40;12.80;;;;;;;;;;4971629;28;95755;-74
2021/12/25 01:16:05;;;;;;;19.38;10.77;;;;;;;;;;4971193;28;97311;-74
2021/12/25 01:35:01;;;;;;;23.40;12.43;;;;;;;;;;4993648;28;95389;-76
2021/12/25 01:37:59;;;;;;;20.90;12.55;;;;;;;;;;4982607;28;97378;-75
2021/12/25 01:48:34;;;;;;;20.92;12.27;;;;;;;;;;4972089;28;96093;-75
2021/12/25 01:51:00;;;;;;;22.10;12.10;;;;;;;;;;4971026;28;96790;-74
2021/12/25 01:53:27;;;;;;;24.70;13.13;;;;;;;;;;4968728;28;97471;-76
2021/12/25 01:55:54;;;;;;;22.10;11.48;;;;;;;;;;4971811;28;95236;-76
2021/12/25 01:58:21;;;;;;;26.75;14.20;;;;;;;;;;4993253;28;96740;-75
2021/12/25 02:00:49;;;;;;;23.13;13.82;;;;;;;;;;4988566;28;95687;-75
2021/12/25 02:03:17;;;;;;;19.48;10.70;;;;;;;;;;4989779;28;96821;-75
2021/12/25 02:05:43;;;;;;;24.38;12.73;;;;;;;;;;4990075;28;97285;-77
2021/12/25 02:08:25;;;;;;;18.00;10.73;;;;;;;;;;4989751;28;95194;-74
2021/12/25 02:10:51;;;;;;;22.40;13.20;;;;;;;;;;4987076;28;97140;-76
2021/12/25 02:13:18;;;;;;;23.83;13.68;;;;;;;;;;4989707;28;97308;-76
2021/12/25 02:15:48;;;;;;;20.02;11.10;;;;;;;;;;4989772;28;95472;-76
2021/12/25 02:21:02;;;;;;;24.08;13.45;;;;;;;;;;4975776;28;97135;-76
2021/12/25 02:23:30;;;;;;;27.83;14.75;;;;;;;;;;4969611;28;96868;-76
2021/12/25 02:25:57;;;;;;;18.85;10.30;;;;;;;;;;4969861;28;97746;-75
2021/12/25 02:28:25;;;;;;;25.42;14.73;;;;;;;;;;4983342;28;95433;-76
2021/12/25 02:30:52;;;;;;;24.58;13.65;;;;;;;;;;4989003;28;97365;-74
2021/12/25 02:33:19;;;;;;;21.95;12.68;;;;;;;;;;4989296;28;97432;-77
2021/12/25 02:35:45;;;;;;;29.60;15.52;;;;;;;;;;4989694;28;95270;-77
2021/12/25 02:38:12;;;;;;;29.13;16.55;;;;;;;;;;4987737;28;96887;-76
2021/12/25 02:40:39;;;;;;;19.42;10.55;;;;;;;;;;4989845;28;97591;-76
2021/12/25 02:43:08;;;;;;;21.73;12.13;;;;;;;;;;4992157;28;95632;-77
2021/12/25 02:45:34;;;;;;;20.42;11.13;;;;;;;;;;4984106;28;97316;-74
2021/12/25 02:48:07;;;;;;;31.60;16.25;;;;;;;;;;4975125;28;95377;-75
2021/12/25 02:50:34;;;;;;;31.50;15.15;;;;;;;;;;4988389;28;95688;-75
2021/12/25 02:53:01;;;;;;;32.95;17.15;;;;;;;;;;4989483;28;97721;-75
2021/12/25 02:55:27;;;;;;;32.92;18.45;;;;;;;;;;4977593;28;95657;-74
2021/12/25 02:57:54;;;;;;;28.23;15.98;;;;;;;;;;4953867;28;96989;-75
2021/12/25 03:00:27;;;;;;;33.72;15.20;;;;;;;;;;4969415;28;97749;-76
2021/12/25 03:02:54;;;;;;;32.47;16.75;;;;;;;;;;4972623;28;95439;-75
2021/12/25 03:05:21;;;;;;;30.85;16.42;;;;;;;;;;4968693;28;97252;-77
2021/12/25 03:07:47;;;;;;;25.05;14.45;;;;;;;;;;4970289;28;95404;-77
2021/12/25 03:10:16;;;;;;;29.10;15.57;;;;;;;;;;4969628;28;96863;-76
2021/12/25 03:12:53;;;;;;;28.95;14.90;;;;;;;;;;4969143;28;98604;-77
2021/12/25 03:15:40;;;;;;;35.78;18.15;;;;;;;;;;4969608;28;95263;-75
2021/12/25 03:18:07;;;;;;;30.42;15.15;;;;;;;;;;4970190;28;97272;-76
2021/12/25 03:20:34;;;;;;;36.33;18.27;;;;;;;;;;4989151;28;97260;-76
2021/12/25 03:23:00;;;;;;;34.03;16.77;;;;;;;;;;4987519;28;95365;-76
2021/12/25 03:25:27;;;;;;;32.22;14.88;;;;;;;;;;4991497;28;96817;-76
2021/12/25 03:27:55;;;;;;;35.30;17.08;;;;;;;;;;4973497;28;95649;-76
2021/12/25 03:30:22;;;;;;;23.85;12.13;;;;;;;;;;4988259;28;95647;-76
2021/12/25 03:32:48;;;;;;;33.00;15.85;;;;;;;;;;4988311;28;97380;-77
2021/12/25 03:35:15;;;;;;;33.17;16.52;;;;;;;;;;4988832;28;95619;-75
2021/12/25 03:37:41;;;;;;;25.20;12.77;;;;;;;;;;4985560;28;96832;-76
2021/12/25 03:40:08;;;;;;;34.88;16.90;;;;;;;;;;4966893;28;97321;-76
2021/12/25 03:42:34;;;;;;;30.77;16.42;;;;;;;;;;4970266;28;95910;-75
2021/12/25 03:45:00;;;;;;;24.15;12.60;;;;;;;;;;4969490;28;95653;-77
2021/12/25 03:47:33;;;;;;;32.30;16.23;;;;;;;;;;4971351;28;97283;-76
2021/12/25 03:58:20;;;;;;;32.70;16.42;;;;;;;;;;4970811;28;96913;-76
2021/12/25 04:00:48;;;;;;;25.65;13.30;;;;;;;;;;4987875;28;97330;-76
2021/12/25 04:03:24;;;;;;;29.80;14.18;;;;;;;;;;4988187;28;95547;-76
2021/12/25 04:05:50;;;;;;;31.15;15.18;;;;;;;;;;4988096;28;97140;-76
2021/12/25 04:08:20;;;;;;;28.05;13.68;;;;;;;;;;4987573;28;97405;-77
2021/12/25 04:10:49;;;;;;;27.17;12.32;;;;;;;;;;4991972;28;95229;-77
2021/12/25 04:13:16;;;;;;;34.75;13.93;;;;;;;;;;4981438;28;97337;-77
2021/12/25 04:15:43;;;;;;;14.82;8.50;;;;;;;;;;4968444;28;95373;-78
2021/12/25 04:18:09;;;;;;;25.88;12.18;;;;;;;;;;4967346;28;97062;-76
2021/12/25 04:20:36;;;;;;;23.42;11.60;;;;;;;;;;4969486;28;97373;-78
2021/12/25 04:23:10;;;;;;;16.60;8.75;;;;;;;;;;4968157;28;95510;-77
2021/12/25 04:25:36;;;;;;;19.65;9.65;;;;;;;;;;4970449;28;100203;-78
2021/12/25 04:28:12;;;;;;;20.92;10.68;;;;;;;;;;4988274;28;97661;-77
2021/12/25 04:31:00;;;;;;;20.85;9.98;;;;;;;;;;4971665;28;95349;-78
2021/12/25 04:50:20;;;;;;;19.00;9.43;;;;;;;;;;4968812;28;97512;-77
2021/12/25 05:06:07;;;;;;;21.45;8.93;;;;;;;;;;4971120;28;95676;-75
2021/12/25 05:08:33;;;;;;;20.13;9.32;;;;;;;;;;4968579;28;97174;-75
2021/12/25 05:10:59;;;;;;;18.27;9.32;;;;;;;;;;4981293;28;97333;-76
2021/12/25 05:13:26;;;;;;;11.93;6.35;;;;;;;;;;4986650;28;95373;-75
2021/12/25 05:15:52;;;;;;;8.77;4.80;;;;;;;;;;4990095;28;96874;-76
2021/12/25 05:18:19;;;;;;;14.85;7.00;;;;;;;;;;4993710;28;97314;-76
2021/12/25 05:20:46;;;;;;;14.30;6.75;;;;;;;;;;4981570;28;97350;-77
2021/12/25 05:23:12;;;;;;;11.82;5.90;;;;;;;;;;4971051;28;97202;-78
2021/12/25 05:25:38;;;;;;;15.68;7.47;;;;;;;;;;4971064;28;95385;-75
2021/12/25 05:28:05;;;;;;;13.15;7.32;;;;;;;;;;4971977;28;96843;-73
2021/12/25 05:30:32;;;;;;;11.32;5.63;;;;;;;;;;4979910;28;97372;-75
2021/12/25 05:32:58;;;;;;;13.55;6.07;;;;;;;;;;4990493;28;95376;-76
2021/12/25 05:35:24;;;;;;;12.65;5.97;;;;;;;;;;4990949;28;96158;-75
2021/12/25 05:37:57;;;;;;;9.95;4.65;;;;;;;;;;4990447;28;97643;-75
2021/12/25 05:40:24;;;;;;;9.98;5.07;;;;;;;;;;4986009;28;95875;-75
2021/12/25 05:42:51;;;;;;;9.55;5.38;;;;;;;;;;4969536;28;96736;-76
2021/12/25 05:45:17;;;;;;;7.38;4.18;;;;;;;;;;4982729;28;96108;-75
2021/12/25 05:47:44;;;;;;;7.65;4.50;;;;;;;;;;4990539;28;97038;-75
2021/12/25 05:50:10;;;;;;;9.15;4.13;;;;;;;;;;4984642;28;97639;-76
2021/12/25 05:52:38;;;;;;;7.45;3.67;;;;;;;;;;4972321;28;95373;-78
2021/12/25 05:55:05;;;;;;;7.55;3.05;;;;;;;;;;4982236;28;96900;-78
2021/12/25 05:57:34;;;;;;;4.85;2.80;;;;;;;;;;4970883;28;98614;-76
2021/12/25 06:00:00;;;;;;;4.38;2.45;;;;;;;;;;4969133;28;95890;-75
2021/12/25 06:02:27;;;;;;;5.75;2.67;;;;;;;;;;4953694;28;96871;-76
2021/12/25 06:04:53;;;;;;;6.40;2.65;;;;;;;;;;4951360;28;95678;-77
2021/12/25 06:07:20;;;;;;;6.55;2.45;;;;;;;;;;4951660;28;96787;-76
2021/12/25 06:09:46;;;;;;;4.90;2.13;;;;;;;;;;4970829;28;97702;-76
2021/12/25 06:12:14;;;;;;;7.50;2.90;;;;;;;;;;4983302;28;95502;-75
2021/12/25 06:14:43;;;;;;;5.22;2.72;;;;;;;;;;4988748;28;97197;-78
2021/12/25 06:17:09;;;;;;;2.85;1.98;;;;;;;;;;4990218;28;97374;-75
2021/12/25 06:19:36;;;;;;;3.95;2.10;;;;;;;;;;4988288;28;95357;-76
2021/12/25 06:22:02;;;;;;;6.00;2.33;;;;;;;;;;4950716;28;96886;-76
2021/12/25 06:24:30;;;;;;;9.15;2.33;;;;;;;;;;4953439;28;97591;-76
2021/12/25 06:26:56;;;;;;;7.43;2.53;;;;;;;;;;4965890;28;97161;-76
2021/12/25 06:29:23;;;;;;;5.20;2.50;;;;;;;;;;4950196;28;97427;-76
2021/12/25 06:31:50;;;;;;;4.07;2.15;;;;;;;;;;4990068;28;95834;-75
2021/12/25 06:34:16;;;;;;;2.83;1.75;;;;;;;;;;4989786;28;97187;-76
2021/12/25 06:36:43;;;;;;;4.60;2.35;;;;;;;;;;4988509;28;97438;-76
2021/12/25 06:39:14;;;;;;;5.72;2.92;;;;;;;;;;4978406;28;95831;-77
2021/12/25 06:41:42;;;;;;;8.33;2.43;;;;;;;;;;4985034;28;96823;-76
2021/12/25 06:44:08;;;;;;;6.15;3.17;;;;;;;;;;4989047;28;97417;-76
2021/12/25 06:46:35;;;;;;;6.75;2.47;;;;;;;;;;4992853;28;95667;-77
2021/12/25 06:49:02;;;;;;;3.60;2.08;;;;;;;;;;4989199;28;97330;-76
2021/12/25 06:51:28;;;;;;;4.70;2.72;;;;;;;;;;4975957;28;95365;-76
2021/12/25 06:53:54;;;;;;;7.45;2.63;;;;;;;;;;4969878;28;96763;-76
2021/12/25 06:56:21;;;;;;;4.35;2.42;;;;;;;;;;4969009;28;97391;-78
2021/12/25 06:58:48;;;;;;;5.22;2.70;;;;;;;;;;4969959;28;95395;-75
2021/12/25 07:01:14;;;;;;;6.65;2.72;;;;;;;;;;4980439;28;97021;-76
2021/12/25 07:03:41;;;;;;;7.63;2.90;;;;;;;;;;4987643;28;97513;-77
2021/12/25 07:06:07;;;;;;;5.90;2.50;;;;;;;;;;4972703;28;95689;-77
2021/12/25 07:08:33;;;;;;;12.95;3.10;;;;;;;;;;4969472;28;97474;-76
2021/12/25 07:11:00;;;;;;;5.53;2.70;;;;;;;;;;4975632;28;95448;-77
2021/12/25 07:13:26;;;;;;;8.13;2.50;;;;;;;;;;4988904;28;96813;-77
2021/12/25 07:15:52;;;;;;;6.63;2.10;;;;;;;;;;4988984;28;97466;-77
2021/12/25 07:18:19;;;;;;;4.70;2.30;;;;;;;;;;4988657;28;95324;-77
2021/12/25 07:20:48;;;;;;;6.57;2.65;;;;;;;;;;4985613;28;96838;-76
2021/12/25 07:23:15;;;;;;;4.68;2.33;;;;;;;;;;4969029;28;97367;-75
2021/12/25 07:25:42;;;;;;;6.55;2.53;;;;;;;;;;4967676;28;95620;-76
2021/12/25 07:28:08;;;;;;;5.20;2.55;;;;;;;;;;4972325;28;96772;-77
2021/12/25 07:30:35;;;;;;;6.30;2.85;;;;;;;;;;4970503;28;96863;-76
2021/12/25 07:33:01;;;;;;;3.30;2.10;;;;;;;;;;4968075;28;97094;-77
2021/12/25 07:35:28;;;;;;;9.05;4.07;;;;;;;;;;4984812;28;97696;-77
2021/12/25 07:37:55;;;;;;;8.23;2.58;;;;;;;;;;4988693;28;95259;-77
2021/12/25 07:40:22;;;;;;;6.22;2.88;;;;;;;;;;4987006;28;97171;-76
2021/12/25 07:42:48;;;;;;;9.05;3.42;;;;;;;;;;4971763;28;97302;-76
2021/12/25 07:45:15;;;;;;;7.03;2.80;;;;;;;;;;4983196;28;95665;-75
2021/12/25 07:47:48;;;;;;;8.98;3.90;;;;;;;;;;4969405;28;97189;-76
2021/12/25 15:50:29;;;;;;;6.55;2.53;;;;;;;;;;5025344;28;95760;-78
2021/12/25 15:52:58;;;;;;;4.43;2.45;;;;;;;;;;4997149;28;97699;-78
2021/12/25 15:55:29;;;;;;;3.70;2.20;;;;;;;;;;5024656;28;95464;-78
2021/12/25 15:58:03;;;;;;;5.47;3.22;;;;;;;;;;5004616;28;98025;-76
2021/12/25 16:00:30;;;;;;;6.25;2.65;;;;;;;;;;5017928;28;100076;-76
2021/12/25 16:02:56;;;;;;;6.85;3.60;;;;;;;;;;5013142;28;96785;-79
2021/12/25 16:05:23;;;;;;;11.93;5.13;;;;;;;;;;5002040;28;97175;-79
2021/12/25 16:07:49;;;;;;;8.15;4.60;;;;;;;;;;5004087;28;96315;-79
2021/12/25 16:10:16;;;;;;;5.43;3.20;;;;;;;;;;5007844;28;95232;-79
2021/12/25 16:12:42;;;;;;;8.02;3.17;;;;;;;;;;4987884;28;97580;-78
2021/12/25 16:15:08;;;;;;;15.00;6.50;;;;;;;;;;5018995;28;95554;-79
2021/12/25 16:17:35;;;;;;;5.70;3.03;;;;;;;;;;5016640;28;97062;-79
2021/12/25 16:20:01;;;;;;;5.63;2.83;;;;;;;;;;5005390;28;97635;-76
2021/12/25 16:22:28;;;;;;;3.60;2.17;;;;;;;;;;5004316;28;95571;-79
2021/12/25 16:24:54;;;;;;;8.77;4.10;;;;;;;;;;4998790;28;96786;-80
2021/12/25 16:27:20;;;;;;;5.45;3.42;;;;;;;;;;4985522;28;97425;-80
2021/12/25 16:29:47;;;;;;;9.35;4.88;;;;;;;;;;5020848;28;95134;-77
2021/12/25 16:32:13;;;;;;;10.73;4.22;;;;;;;;;;5023724;28;97026;-79
2021/12/25 16:34:40;;;;;;;7.95;4.03;;;;;;;;;;5010644;28;95603;-78
2021/12/25 16:37:06;;;;;;;8.75;4.00;;;;;;;;;;5014681;28;96756;-76
2021/12/25 16:39:32;;;;;;;9.02;4.85;;;;;;;;;;5017534;28;97354;-77
2021/12/25 16:41:59;;;;;;;12.00;6.78;;;;;;;;;;5010287;28;95370;-79
2021/12/25 16:44:25;;;;;;;8.13;4.15;;;;;;;;;;4999984;28;98073;-80
2021/12/25 16:46:51;;;;;;;14.18;7.13;;;;;;;;;;5004424;28;96520;-79
2021/12/25 16:49:19;;;;;;;11.90;4.70;;;;;;;;;;5006967;28;95409;-81
2021/12/25 16:51:45;;;;;;;8.40;3.75;;;;;;;;;;5021587;28;97055;-80
2021/12/25 16:54:12;;;;;;;16.27;8.43;;;;;;;;;;5017927;28;97392;-79
2021/12/25 16:56:42;;;;;;;11.95;5.22;;;;;;;;;;5024285;28;96854;-81
2021/12/25 16:59:21;;;;;;;14.88;5.43;;;;;;;;;;5001786;28;97353;-79
2021/12/25 17:01:48;;;;;;;10.60;4.47;;;;;;;;;;4988481;28;95957;-77
2021/12/25 17:04:15;;;;;;;12.00;4.68;;;;;;;;;;4992857;28;96737;-77
2021/12/25 17:06:41;;;;;;;9.85;3.03;;;;;;;;;;5003192;28;97237;-78
2021/12/25 17:09:07;;;;;;;8.32;3.78;;;;;;;;;;4979910;28;96365;-79
2021/12/25 17:11:34;;;;;;;10.27;3.78;;;;;;;;;;4994552;28;96198;-78
2021/12/25 17:14:01;;;;;;;7.20;2.70;;;;;;;;;;4972685;28;97240;-78
2021/12/25 17:16:30;;;;;;;8.43;3.60;;;;;;;;;;4994480;28;95382;-81
2021/12/25 17:18:57;;;;;;;9.00;3.30;;;;;;;;;;4988338;28;97251;-79
2021/12/25 17:21:23;;;;;;;7.57;3.20;;;;;;;;;;4982941;28;95225;-81
2021/12/25 17:23:49;;;;;;;5.90;2.53;;;;;;;;;;4983173;28;95949;-81
2021/12/25 17:26:16;;;;;;;7.22;3.58;;;;;;;;;;4984506;28;97216;-81
2021/12/25 17:28:42;;;;;;;5.03;2.95;;;;;;;;;;4985711;28;95892;-81
2021/12/25 17:31:09;;;;;;;8.35;3.60;;;;;;;;;;4998147;28;97171;-82
2021/12/25 17:33:35;;;;;;;10.18;3.00;;;;;;;;;;4994754;28;96296;-81
2021/12/25 17:36:03;;;;;;;6.72;2.35;;;;;;;;;;4998451;28;96097;-78
2021/12/25 17:38:31;;;;;;;4.13;2.20;;;;;;;;;;5005995;28;96840;-80
2021/12/25 17:40:58;;;;;;;6.47;2.65;;;;;;;;;;4998904;28;95503;-81
2021/12/25 17:43:24;;;;;;;5.53;2.10;;;;;;;;;;4993258;28;96593;-77
2021/12/25 17:45:51;;;;;;;4.82;2.78;;;;;;;;;;4998669;28;97384;-79
2021/12/25 17:48:17;;;;;;;7.25;2.65;;;;;;;;;;4995137;28;95802;-77
2021/12/25 17:50:43;;;;;;;5.22;2.72;;;;;;;;;;4994436;28;96998;-78
2021/12/25 17:53:10;;;;;;;4.68;2.58;;;;;;;;;;5000469;28;97313;-76
2021/12/25 17:55:37;;;;;;;6.20;3.13;;;;;;;;;;4989794;28;95553;-77
2021/12/25 17:58:04;;;;;;;9.52;3.90;;;;;;;;;;4988738;28;96756;-78
2021/12/25 18:00:35;;;;;;;12.30;4.18;;;;;;;;;;4989004;28;95746;-79
2021/12/25 18:03:03;;;;;;;8.13;3.42;;;;;;;;;;4988935;28;97094;-77
2021/12/25 18:05:30;;;;;;;9.68;3.80;;;;;;;;;;4999761;28;97350;-77
2021/12/25 18:07:56;;;;;;;7.72;3.65;;;;;;;;;;5004077;28;95309;-75
2021/12/25 18:10:23;;;;;;;8.65;3.80;;;;;;;;;;4990306;28;96762;-79
2021/12/25 18:12:49;;;;;;;9.82;4.05;;;;;;;;;;4986015;28;97436;-76
2021/12/25 18:15:16;;;;;;;7.95;4.05;;;;;;;;;;4998446;28;95295;-78
2021/12/25 18:17:44;;;;;;;8.48;3.78;;;;;;;;;;4991867;28;97109;-80
2021/12/25 18:20:11;;;;;;;6.25;3.03;;;;;;;;;;5000189;28;97672;-78
2021/12/25 18:22:39;;;;;;;9.05;3.03;;;;;;;;;;4988963;28;96785;-76
2021/12/25 18:25:07;;;;;;;5.75;2.60;;;;;;;;;;5001440;28;97390;-74
2021/12/25 18:27:34;;;;;;;5.63;2.88;;;;;;;;;;4993312;28;95779;-79
2021/12/25 18:30:00;;;;;;;8.27;3.00;;;;;;;;;;4992871;28;96732;-75
2021/12/25 18:32:27;;;;;;;7.00;3.63;;;;;;;;;;4985515;28;96714;-78
2021/12/25 18:34:53;;;;;;;6.97;3.90;;;;;;;;;;4987932;28;95253;-78
2021/12/25 18:37:19;;;;;;;6.40;3.47;;;;;;;;;;4990724;28;96482;-77
2021/12/25 18:39:46;;;;;;;8.63;3.90;;;;;;;;;;4992305;28;97316;-78
2021/12/25 18:42:13;;;;;;;9.45;3.78;;;;;;;;;;5005230;28;95248;-76
2021/12/25 18:44:40;;;;;;;5.97;3.03;;;;;;;;;;4990088;28;97466;-75
2021/12/25 18:47:08;;;;;;;8.57;4.38;;;;;;;;;;4989112;28;95754;-77
2021/12/25 18:49:35;;;;;;;7.22;3.33;;;;;;;;;;4999208;28;96423;-77
2021/12/25 18:52:01;;;;;;;12.35;3.13;;;;;;;;;;4993763;28;97398;-76
2021/12/25 18:54:28;;;;;;;6.05;3.10;;;;;;;;;;4979100;28;95615;-77
2021/12/25 18:56:54;;;;;;;8.30;3.40;;;;;;;;;;4967616;28;96001;-78
2021/12/25 18:59:21;;;;;;;6.38;3.10;;;;;;;;;;4974054;28;100134;-77
2021/12/25 19:01:47;;;;;;;5.82;2.95;;;;;;;;;;4995972;28;96143;-76
2021/12/25 19:04:14;;;;;;;12.98;3.08;;;;;;;;;;5010771;28;96756;-76
2021/12/25 19:06:40;;;;;;;8.95;2.60;;;;;;;;;;5001840;28;95471;-76
2021/12/25 19:09:07;;;;;;;6.30;2.85;;;;;;;;;;4983707;28;96700;-77
2021/12/25 19:11:34;;;;;;;5.07;2.47;;;;;;;;;;4994912;28;97453;-74
2021/12/25 19:14:01;;;;;;;8.27;3.20;;;;;;;;;;5009116;28;95411;-75
2021/12/25 19:16:28;;;;;;;6.07;3.30;;;;;;;;;;5001856;28;97041;-74
2021/12/25 19:18:55;;;;;;;7.88;3.78;;;;;;;;;;4990500;28;97793;-78
2021/12/25 19:21:24;;;;;;;6.45;3.35;;;;;;;;;;4990188;28;95634;-76
2021/12/25 19:23:51;;;;;;;13.88;4.05;;;;;;;;;;5007520;28;96617;-77
2021/12/25 19:26:17;;;;;;;14.38;7.45;;;;;;;;;;5006143;28;98087;-78
2021/12/25 19:28:43;;;;;;;9.25;4.50;;;;;;;;;;5008661;28;96821;-78
2021/12/25 19:31:12;;;;;;;9.70;4.00;;;;;;;;;;4988521;28;97166;-78
2021/12/25 19:33:39;;;;;;;8.98;3.45;;;;;;;;;;4975746;28;95721;-77
2021/12/25 19:36:06;;;;;;;11.00;3.97;;;;;;;;;;4967882;28;96444;-77
2021/12/25 19:38:32;;;;;;;8.18;3.55;;;;;;;;;;4989369;28;97154;-77
2021/12/25 19:41:00;;;;;;;6.80;3.45;;;;;;;;;;5007774;28;95631;-78
2021/12/25 19:43:26;;;;;;;11.82;3.58;;;;;;;;;;4995015;28;96688;-79
2021/12/25 19:45:55;;;;;;;7.82;3.15;;;;;;;;;;4988362;28;97107;-79
2021/12/25 19:48:22;;;;;;;8.07;3.80;;;;;;;;;;5000081;28;95401;-76
2021/12/25 19:50:50;;;;;;;14.43;3.72;;;;;;;;;;4988760;28;97591;-79
2021/12/25 19:53:18;;;;;;;7.82;3.38;;;;;;;;;;4987532;28;95365;-78
2021/12/25 19:55:44;;;;;;;6.35;3.17;;;;;;;;;;4987431;28;96858;-78
2021/12/25 19:58:11;;;;;;;8.52;4.10;;;;;;;;;;5001473;28;97314;-77
2021/12/25 20:00:48;;;;;;;7.28;3.90;;;;;;;;;;5004831;28;95838;-77
2021/12/25 20:03:16;;;;;;;8.07;3.72;;;;;;;;;;4995333;28;96850;-78
2021/12/25 20:05:47;;;;;;;7.18;3.50;;;;;;;;;;4989461;28;97331;-78
2021/12/25 20:08:13;;;;;;;10.60;4.80;;;;;;;;;;5010150;28;95327;-78
2021/12/25 20:10:40;;;;;;;6.93;3.78;;;;;;;;;;4991751;28;96132;-79
2021/12/25 20:13:17;;;;;;;12.95;5.28;;;;;;;;;;4985543;28;95992;-77
2021/12/25 20:15:43;;;;;;;12.05;4.65;;;;;;;;;;5001862;28;97156;-78
2021/12/25 20:18:09;;;;;;;9.00;3.90;;;;;;;;;;5001103;28;97270;-78
2021/12/25 20:20:36;;;;;;;8.38;4.50;;;;;;;;;;4998922;28;95754;-78
2021/12/25 20:23:02;;;;;;;8.85;4.32;;;;;;;;;;4980266;28;96872;-79
2021/12/25 20:25:30;;;;;;;10.73;4.15;;;;;;;;;;4995074;28;97340;-78
2021/12/25 20:27:56;;;;;;;6.93;4.05;;;;;;;;;;4995556;28;95384;-77
2021/12/25 20:30:24;;;;;;;12.70;4.75;;;;;;;;;;4990490;28;96795;-79
2021/12/25 20:32:52;;;;;;;8.48;4.20;;;;;;;;;;5004742;28;95544;-78
2021/12/25 20:35:19;;;;;;;9.00;3.92;;;;;;;;;;4992727;28;96773;-77
2021/12/25 20:37:45;;;;;;;6.93;3.58;;;;;;;;;;5001194;28;97652;-77
2021/12/25 20:40:16;;;;;;;13.85;4.82;;;;;;;;;;4990466;28;95365;-78
2021/12/25 20:42:43;;;;;;;7.40;3.83;;;;;;;;;;4994778;28;97100;-77
2021/12/25 20:47:55;;;;;;;12.27;5.18;;;;;;;;;;4990617;28;95294;-76
2021/12/25 20:50:22;;;;;;;10.07;4.70;;;;;;;;;;4991028;28;96950;-78
2021/12/25 20:52:48;;;;;;;10.55;4.20;;;;;;;;;;4992710;28;97419;-78
2021/12/25 20:55:14;;;;;;;13.50;4.70;;;;;;;;;;4997269;28;95681;-79
2021/12/25 20:57:43;;;;;;;11.32;5.07;;;;;;;;;;4999347;28;97253;-82
2021/12/25 21:00:10;;;;;;;11.25;5.93;;;;;;;;;;5004554;28;95672;-77
2021/12/25 21:02:37;;;;;;;8.77;4.30;;;;;;;;;;5010375;28;96760;-80
2021/12/25 21:05:03;;;;;;;8.27;4.28;;;;;;;;;;4999557;28;97392;-79
2021/12/25 21:07:30;;;;;;;11.60;4.47;;;;;;;;;;4989695;28;96257;-79
2021/12/25 21:09:56;;;;;;;8.88;5.05;;;;;;;;;;5005572;28;97091;-78
2021/12/25 21:12:26;;;;;;;8.50;4.22;;;;;;;;;;4990681;28;97380;-78
2021/12/25 21:14:53;;;;;;;10.00;3.75;;;;;;;;;;4994528;28;95489;-79
2021/12/25 21:17:20;;;;;;;9.63;4.38;;;;;;;;;;4989615;28;97195;-79
2021/12/25 21:19:47;;;;;;;9.73;4.22;;;;;;;;;;5010264;28;95346;-78
2021/12/25 21:22:13;;;;;;;8.15;4.63;;;;;;;;;;4998578;28;97131;-79
2021/12/25 21:24:40;;;;;;;10.23;4.32;;;;;;;;;;4990355;28;96593;-79
2021/12/25 21:27:06;;;;;;;7.78;3.95;;;;;;;;;;4989641;28;95749;-79
2021/12/25 21:29:33;;;;;;;7.35;4.20;;;;;;;;;;4990062;28;95499;-78
2021/12/25 21:31:59;;;;;;;13.73;4.60;;;;;;;;;;4988899;28;96293;-78
2021/12/25 21:34:26;;;;;;;7.38;3.67;;;;;;;;;;4989615;28;95402;-78
2021/12/25 21:36:52;;;;;;;9.25;4.85;;;;;;;;;;5005295;28;96808;-79
2021/12/25 21:39:19;;;;;;;9.80;4.32;;;;;;;;;;4988792;28;96488;-77
2021/12/25 21:41:45;;;;;;;7.75;4.00;;;;;;;;;;4989002;28;96865;-77
2021/12/25 21:44:11;;;;;;;7.07;3.67;;;;;;;;;;4988488;28;97402;-79
2021/12/25 21:46:38;;;;;;;10.65;4.53;;;;;;;;;;5005529;28;95631;-81
2021/12/25 21:49:05;;;;;;;6.22;3.42;;;;;;;;;;5002559;28;96874;-79
2021/12/25 21:51:32;;;;;;;13.50;5.13;;;;;;;;;;4989520;28;95860;-79
2021/12/25 21:53:59;;;;;;;8.90;3.60;;;;;;;;;;4991740;28;95513;-76
2021/12/25 21:56:27;;;;;;;10.15;4.10;;;;;;;;;;4995076;28;97743;-78
2021/12/25 21:58:53;;;;;;;9.48;4.28;;;;;;;;;;5002565;28;97294;-78
2021/12/25 22:01:21;;;;;;;9.93;4.47;;;;;;;;;;4989784;28;97495;-79
2021/12/25 22:03:48;;;;;;;10.35;4.40;;;;;;;;;;4989331;28;97408;-79
2021/12/25 22:06:16;;;;;;;9.60;4.18;;;;;;;;;;4985415;28;95780;-78
2021/12/25 22:08:42;;;;;;;15.45;4.80;;;;;;;;;;5022500;27;96890;-79
2021/12/25 22:11:09;;;;;;;14.15;5.30;;;;;;;;;;5008100;28;97447;-79
2021/12/25 22:13:36;;;;;;;18.40;7.47;;;;;;;;;;4994086;28;95674;-79
2021/12/25 22:16:03;;;;;;;10.90;5.38;;;;;;;;;;4998532;28;96833;-80
2021/12/25 22:18:30;;;;;;;11.02;5.25;;;;;;;;;;4979140;28;97325;-80
2021/12/25 22:20:56;;;;;;;12.90;5.65;;;;;;;;;;5009491;28;96738;-79
2021/12/25 22:23:29;;;;;;;13.38;6.03;;;;;;;;;;5005879;28;97279;-78
2021/12/25 22:25:57;;;;;;;11.85;4.93;;;;;;;;;;4991709;28;96642;-74
2021/12/25 22:28:23;;;;;;;10.18;4.35;;;;;;;;;;4991824;28;96921;-76
2021/12/25 22:30:50;;;;;;;10.88;4.88;;;;;;;;;;5008544;28;97503;-76
2021/12/25 22:33:17;;;;;;;9.32;4.05;;;;;;;;;;5006454;28;95286;-78
2021/12/25 22:35:44;;;;;;;7.03;4.13;;;;;;;;;;5005849;28;96640;-79
2021/12/25 22:38:10;;;;;;;11.68;4.45;;;;;;;;;;4987536;28;96594;-79
2021/12/25 22:40:38;;;;;;;7.32;4.20;;;;;;;;;;4995903;28;95331;-82
2021/12/25 22:43:04;;;;;;;8.30;3.65;;;;;;;;;;4986408;28;97433;-80
2021/12/25 22:45:31;;;;;;;6.85;3.97;;;;;;;;;;5007998;28;95715;-80
2021/12/25 22:47:57;;;;;;;7.13;4.03;;;;;;;;;;4973301;28;96815;-79
2021/12/25 22:50:30;;;;;;;9.50;4.53;;;;;;;;;;4988435;28;97328;-80
2021/12/25 22:52:57;;;;;;;6.93;3.70;;;;;;;;;;4987797;28;95681;-80
2021/12/25 22:55:24;;;;;;;11.45;4.40;;;;;;;;;;4990117;28;96765;-79
2021/12/25 22:57:53;;;;;;;6.95;3.30;;;;;;;;;;5002048;28;97417;-78
2021/12/25 23:00:25;;;;;;;9.52;3.78;;;;;;;;;;4995386;28;95794;-78
2021/12/25 23:02:53;;;;;;;;;;;;;;;;;;4992303;28;96874;-78
2021/12/25 23:05:21;;;;;;;7.47;4.13;;;;;;;;;;4999167;28;119232;-79
2021/12/25 23:07:47;;;;;;;8.10;3.35;;;;;;;;;;5002322;28;96715;-79
2021/12/25 23:10:14;;;;;;;8.70;3.42;;;;;;;;;;5007984;28;97233;-79
2021/12/25 23:12:41;;;;;;;6.28;3.50;;;;;;;;;;5006133;28;95853;-77
2021/12/25 23:15:07;;;;;;;6.63;3.55;;;;;;;;;;5008060;28;96806;-78
2021/12/25 23:17:34;;;;;;;6.97;3.90;;;;;;;;;;4993258;28;97336;-75
2021/12/25 23:20:00;;;;;;;7.55;4.35;;;;;;;;;;4989188;28;95592;-77
2021/12/25 23:22:27;;;;;;;9.88;4.00;;;;;;;;;;4999912;28;96958;-78
2021/12/25 23:24:53;;;;;;;6.82;3.60;;;;;;;;;;5003292;28;95939;-78
2021/12/25 23:27:19;;;;;;;6.57;3.10;;;;;;;;;;4991681;28;96005;-78
2021/12/25 23:29:46;;;;;;;10.25;3.67;;;;;;;;;;5007531;28;97707;-75
2021/12/25 23:32:12;;;;;;;5.10;3.00;;;;;;;;;;5004759;28;95271;-80
2021/12/25 23:34:39;;;;;;;5.88;2.92;;;;;;;;;;4992527;28;97132;-78
2021/12/25 23:37:05;;;;;;;7.50;3.70;;;;;;;;;;4986121;28;97643;-75
2021/12/25 23:39:31;;;;;;;7.97;3.80;;;;;;;;;;4988232;28;95748;-77
2021/12/25 23:42:00;;;;;;;7.32;3.33;;;;;;;;;;4990833;28;97106;-76
2021/12/25 23:44:27;;;;;;;6.88;3.40;;;;;;;;;;4986796;28;97387;-77
2021/12/25 23:46:53;;;;;;;5.90;2.92;;;;;;;;;;4999676;28;95328;-78
2021/12/25 23:49:23;;;;;;;7.63;3.30;;;;;;;;;;5007354;28;97434;-81